Time;durP1;ratioP1;P1;durP2;ratioP2;P2;SDS_P1;SDS_P2;PMS_P1;PMS_P2;Temp;Humidity;BMP_temperature;BMP_pressure;BME280_temperature;BME280_humidity;BME280_pressure;Samples;Min_cycle;Max_cycle;Signal;HPM_P1;HPM_P2
2022/04/10 00:13:32;;;;;;;8.95;3.65;;;;;;;4.05;88.22;99414.88;739043;1153;115004;-72
2022/04/10 00:28:34;;;;;;;6.55;2.95;;;;;;;4.07;88.71;99423.36;739180;1155;115213;-72
2022/04/10 00:43:38;;;;;;;5.33;2.80;;;;;;;3.99;88.73;99425.70;738885;1154;115021;-72
2022/04/10 00:58:41;;;;;;;7.23;2.43;;;;;;;3.91;89.63;99431.45;740367;1153;114150;-73
2022/04/10 01:13:44;;;;;;;6.83;2.63;;;;;;;3.92;87.63;99440.05;740997;1153;115168;-71
2022/04/10 01:29:08;;;;;;;10.25;4.90;;;;;;;3.91;87.36;99443.62;739314;1152;113845;-71
2022/04/10 01:44:10;;;;;;;39.05;11.43;;;;;;;4.16;88.10;99430.45;739046;1153;115712;-71
2022/04/10 01:59:12;;;;;;;49.65;15.48;;;;;;;4.22;87.52;99451.71;738903;1153;115653;-70
2022/04/10 02:14:15;;;;;;;140.23;38.55;;;;;;;4.22;87.47;99452.52;739590;1153;115356;-71
2022/04/10 02:29:17;;;;;;;15.43;6.58;;;;;;;4.36;86.75;99464.48;738850;1155;115768;-71
2022/04/10 02:44:18;;;;;;;13.28;5.53;;;;;;;4.52;87.21;99469.34;738979;1153;115358;-71
2022/04/10 02:59:21;;;;;;;5.95;2.60;;;;;;;4.64;85.68;99467.59;739085;1153;115148;-74
2022/04/10 03:14:23;;;;;;;7.93;3.00;;;;;;;4.67;87.23;99490.73;739646;1153;114539;-70
2022/04/10 03:29:25;;;;;;;6.15;2.80;;;;;;;4.75;85.77;99497.95;739038;1153;115131;-71
2022/04/10 03:44:27;;;;;;;8.75;3.28;;;;;;;4.70;86.75;99506.11;738846;1153;114191;-70
2022/04/10 03:59:29;;;;;;;5.97;2.30;;;;;;;4.80;86.28;99522.66;738811;1155;114378;-70
2022/04/10 04:14:32;;;;;;;4.68;2.45;;;;;;;4.82;84.74;99541.55;739110;1155;115351;-70
2022/04/10 04:29:34;;;;;;;9.33;3.95;;;;;;;4.87;83.53;99564.60;739045;1153;115372;-71
2022/04/10 04:44:36;;;;;;;5.73;2.50;;;;;;;4.94;83.60;99576.17;739593;1155;114177;-71
2022/04/10 04:59:38;;;;;;;7.50;2.40;;;;;;;4.95;83.67;99603.02;739442;1154;115300;-71
2022/04/10 05:14:41;;;;;;;6.37;3.17;;;;;;;4.99;83.65;99617.44;739394;1153;115181;-71
2022/04/10 05:29:43;;;;;;;14.23;7.00;;;;;;;5.19;82.37;99646.27;739167;1152;115420;-71
2022/04/10 05:44:45;;;;;;;10.95;5.85;;;;;;;5.70;82.23;99676.23;740278;1155;115298;-72
2022/04/10 05:59:47;;;;;;;6.95;3.35;;;;;;;5.71;80.68;99689.13;739657;1155;115390;-72
2022/04/10 06:14:49;;;;;;;15.55;4.20;;;;;;;5.78;79.09;99703.33;739899;1153;115004;-77
2022/04/10 06:29:53;;;;;;;7.13;3.60;;;;;;;6.07;79.30;99702.88;739802;1152;113975;-71
2022/04/10 06:44:56;;;;;;;18.58;7.63;;;;;;;6.37;78.39;99719.62;740286;1152;115178;-74
2022/04/10 06:59:58;;;;;;;10.25;3.68;;;;;;;6.66;76.83;99732.09;740052;1153;114571;-75
2022/04/10 07:15:01;;;;;;;11.03;4.73;;;;;;;6.79;75.06;99744.98;740207;1154;113852;-76
2022/04/10 07:30:04;;;;;;;16.73;9.35;;;;;;;6.84;74.00;99753.27;740387;1153;115603;-73
2022/04/10 07:45:08;;;;;;;11.98;4.00;;;;;;;6.98;73.01;99772.98;739773;1153;115385;-71
2022/04/10 08:00:12;;;;;;;30.75;12.83;;;;;;;7.22;71.88;99783.22;740742;1155;115330;-72
2022/04/10 08:15:15;;;;;;;45.35;18.75;;;;;;;7.45;72.20;99783.91;740540;1154;115054;-72
2022/04/10 08:30:18;;;;;;;19.83;8.67;;;;;;;8.25;71.18;99806.89;739034;1154;114773;-72
2022/04/10 08:45:25;;;;;;;9.35;4.10;;;;;;;7.85;68.28;99810.27;739660;1155;115434;-72
2022/04/10 09:00:27;;;;;;;16.73;7.20;;;;;;;7.68;67.87;99825.58;740666;1154;115157;-75
2022/04/10 09:15:33;;;;;;;26.93;17.60;;;;;;;7.85;67.64;99841.61;740225;1155;115150;-72
2022/04/10 09:30:37;;;;;;;10.23;4.63;;;;;;;8.04;67.79;99841.72;740158;1155;115593;-77
2022/04/10 09:45:43;;;;;;;8.18;3.95;;;;;;;8.28;67.11;99858.89;740039;1155;115489;-77
2022/04/10 10:00:47;;;;;;;10.73;4.10;;;;;;;9.02;66.90;99860.38;740410;1154;115774;-76
2022/04/10 10:15:50;;;;;;;9.70;4.40;;;;;;;8.41;65.98;99880.40;740458;1153;114821;-77
2022/04/10 10:31:11;;;;;;;10.85;4.30;;;;;;;9.47;66.00;99862.45;739667;1155;115148;-81
2022/04/10 10:46:34;;;;;;;12.58;4.65;;;;;;;9.12;63.37;99869.06;739651;1155;115648;-79
2022/04/10 11:01:55;;;;;;;14.40;5.03;;;;;;;9.15;64.71;99881.87;739779;1153;114358;-75
2022/04/10 11:17:09;;;;;;;10.08;4.18;;;;;;;9.36;62.36;99887.94;739998;1153;114401;-74
2022/04/10 11:32:18;;;;;;;12.03;4.63;;;;;;;9.22;60.82;99918.80;739533;1153;114330;-73
2022/04/10 11:47:21;;;;;;;15.38;6.38;;;;;;;9.90;64.01;99898.84;739729;1153;114692;-72
2022/04/10 12:02:24;;;;;;;20.78;7.93;;;;;;;11.64;58.23;99913.08;739948;1154;113989;-73
2022/04/10 12:17:27;;;;;;;10.67;3.77;;;;;;;11.05;57.28;99913.47;739887;1155;114753;-72
2022/04/10 12:32:30;;;;;;;14.60;5.20;;;;;;;11.65;56.31;99909.45;739675;1155;115640;-73
2022/04/10 12:47:46;;;;;;;20.98;6.75;;;;;;;10.94;54.28;99927.63;739943;1153;115614;-80
2022/04/10 13:02:48;;;;;;;65.35;25.48;;;;;;;12.47;52.82;99927.62;739958;1155;114646;-77
2022/04/10 13:17:57;;;;;;;11.90;6.30;;;;;;;12.53;49.47;99920.93;741305;1153;115099;-74
2022/04/10 13:33:00;;;;;;;11.37;5.53;;;;;;;12.97;48.22;99921.61;740878;1153;114317;-80
2022/04/10 13:48:03;;;;;;;15.90;4.90;;;;;;;12.99;47.92;99950.41;740684;1152;114796;-77
2022/04/10 14:03:09;;;;;;;9.88;4.33;;;;;;;15.70;45.43;99945.64;740398;1154;115179;-78
2022/04/10 14:18:12;;;;;;;10.00;4.80;;;;;;;19.08;42.43;99977.27;740126;1153;115547;-79
2022/04/10 14:33:15;;;;;;;9.68;4.40;;;;;;;23.02;39.98;99960.70;740686;1155;114331;-78
2022/04/10 14:48:17;;;;;;;18.38;7.13;;;;;;;19.38;40.83;99967.13;740443;1154;114935;-78
2022/04/10 15:03:21;;;;;;;23.53;6.27;;;;;;;17.56;38.20;99966.96;740181;1153;114645;-78
2022/04/10 15:18:24;;;;;;;29.13;14.00;;;;;;;10.85;47.46;100014.25;740692;1154;116142;-76
2022/04/10 15:33:26;;;;;;;17.43;8.48;;;;;;;9.29;54.52;100036.87;741041;1153;115117;-76
2022/04/10 15:48:29;;;;;;;18.53;8.50;;;;;;;9.81;55.91;100037.53;740563;1153;115130;-74
2022/04/10 16:03:31;;;;;;;10.55;5.35;;;;;;;12.36;51.06;100041.00;740543;1153;114658;-75
2022/04/10 16:18:36;;;;;;;7.88;4.95;;;;;;;11.15;50.30;100047.30;739671;1153;115004;-75
2022/04/10 16:34:17;;;;;;;19.00;8.53;;;;;;;9.88;50.59;100050.09;740317;1153;114880;-75
2022/04/10 16:49:04;;;;;;;29.80;15.90;;;;;;;9.29;52.79;100066.51;739892;1155;115649;-83
2022/04/10 17:04:06;;;;;;;55.10;23.80;;;;;;;8.92;54.39;100060.95;740099;1155;115471;-85
2022/04/10 17:19:08;;;;;;;21.15;10.63;;;;;;;8.23;58.37;100106.70;740757;1152;114611;-82
2022/04/10 17:34:15;;;;;;;28.28;10.33;;;;;;;7.36;62.39;100139.59;740017;1162;24701;-74
2022/04/10 17:49:19;;;;;;;38.35;15.10;;;;;;;7.11;64.07;100136.27;740613;1154;115005;-74
2022/04/10 18:04:22;;;;;;;41.15;15.55;;;;;;;6.78;64.73;100155.26;739991;1155;114969;-75
2022/04/10 18:19:28;;;;;;;31.15;13.65;;;;;;;6.34;66.50;100183.64;739843;1155;115327;-75
2022/04/10 18:34:31;;;;;;;488.38;153.25;;;;;;;6.34;67.38;100196.66;740085;1154;115084;-74
2022/04/10 18:49:37;;;;;;;186.53;52.33;;;;;;;5.89;68.31;100199.77;740097;1155;115688;-75
2022/04/10 19:04:42;;;;;;;35.93;17.05;;;;;;;5.69;68.76;100215.94;739891;1155;116305;-74
2022/04/10 19:19:45;;;;;;;23.35;12.15;;;;;;;5.33;69.22;100224.38;740679;1155;115291;-74
2022/04/10 19:34:48;;;;;;;13.20;7.03;;;;;;;4.98;71.11;100237.94;741215;1155;114882;-75
2022/04/10 19:49:51;;;;;;;13.00;5.05;;;;;;;4.90;71.56;100254.98;740720;1153;115617;-74
2022/04/10 20:04:54;;;;;;;12.53;5.33;;;;;;;4.86;73.28;100262.14;741013;1154;115371;-74
2022/04/10 20:19:56;;;;;;;11.58;5.40;;;;;;;4.74;74.62;100268.97;740536;1155;114524;-75
2022/04/10 20:34:58;;;;;;;13.50;5.98;;;;;;;4.51;76.70;100278.20;740799;1154;114642;-74
2022/04/10 20:50:02;;;;;;;12.18;6.05;;;;;;;4.40;76.81;100285.85;740282;1153;114779;-74
2022/04/10 21:05:05;;;;;;;23.53;10.18;;;;;;;4.07;77.59;100276.61;740332;1153;114112;-74
2022/04/10 21:20:09;;;;;;;16.77;7.40;;;;;;;3.92;78.57;100286.14;740449;1153;115804;-74
2022/04/10 21:35:17;;;;;;;22.18;8.73;;;;;;;3.68;78.36;100288.45;739458;1153;115179;-73
2022/04/10 21:50:21;;;;;;;22.63;9.35;;;;;;;3.54;78.86;100291.84;740026;1155;115182;-74
2022/04/10 22:05:24;;;;;;;17.45;8.10;;;;;;;3.33;80.78;100305.16;739542;1152;114956;-74
2022/04/10 22:20:27;;;;;;;17.70;7.73;;;;;;;3.36;82.03;100309.33;739510;1153;114890;-74
2022/04/10 22:35:29;;;;;;;14.78;8.45;;;;;;;3.26;82.38;100312.45;739778;1153;115508;-74
2022/04/10 22:50:32;;;;;;;16.53;7.20;;;;;;;3.12;83.19;100314.98;739910;1153;114897;-74
2022/04/10 23:05:34;;;;;;;20.15;8.15;;;;;;;3.09;83.62;100313.40;740320;1155;114563;-74
2022/04/10 23:20:36;;;;;;;15.05;6.78;;;;;;;2.97;83.88;100319.28;739798;1153;114841;-74
2022/04/10 23:35:38;;;;;;;19.97;8.80;;;;;;;2.96;83.41;100317.61;739468;1153;114877;-72
2022/04/10 23:50:40;;;;;;;23.10;11.13;;;;;;;2.86;83.28;100321.63;739607;1153;114682;-74
